Time;durP1;ratioP1;P1;durP2;ratioP2;P2;SDS_P1;SDS_P2;PMS_P1;PMS_P2;Temp;Humidity;BMP_temperature;BMP_pressure;BME280_temperature;BME280_humidity;BME280_pressure;Samples;Min_cycle;Max_cycle;Signal;HPM_P1;HPM_P2
2021/08/04 00:01:52;;;;;;;1.63;1.17;;;;;;;24.97;43.75;98102.41;5048328;28;20574;-61
2021/08/04 00:04:19;;;;;;;3.43;1.17;;;;;;;24.98;43.93;98108.53;5032952;28;20196;-60
2021/08/04 00:06:46;;;;;;;4.67;1.50;;;;;;;24.97;43.80;98105.06;5033372;28;20629;-60
2021/08/04 00:09:12;;;;;;;1.60;1.37;;;;;;;24.97;43.89;98104.25;5032769;28;20260;-61
2021/08/04 00:11:39;;;;;;;2.63;1.30;;;;;;;24.97;44.00;98105.06;5033222;28;20185;-60
2021/08/04 00:14:06;;;;;;;1.70;1.27;;;;;;;24.96;43.97;98106.09;5048096;28;20210;-61
2021/08/04 00:16:33;;;;;;;1.50;1.30;;;;;;;25.24;43.25;98110.25;5033038;28;20189;-61
2021/08/04 00:18:59;;;;;;;2.03;1.30;;;;;;;25.20;43.35;98103.72;5032822;28;20228;-60
2021/08/04 00:21:26;;;;;;;1.57;1.30;;;;;;;25.05;43.84;98112.81;5033077;28;20220;-60
2021/08/04 00:23:53;;;;;;;2.13;1.43;;;;;;;25.02;43.61;98118.59;5032624;28;20209;-61
2021/08/04 00:26:19;;;;;;;3.10;1.00;;;;;;;24.95;43.78;98110.63;5032758;28;20190;-60
2021/08/04 00:28:46;;;;;;;2.07;1.50;;;;;;;24.98;44.03;98109.38;5031663;28;20213;-60
2021/08/04 00:31:13;;;;;;;1.67;1.27;;;;;;;24.98;43.86;98106.72;5033038;28;20205;-61
2021/08/04 00:33:39;;;;;;;3.37;1.40;;;;;;;24.94;44.04;98106.31;5031334;28;20218;-60
2021/08/04 00:36:06;;;;;;;2.23;1.30;;;;;;;24.93;43.77;98104.66;5048079;28;20233;-60
2021/08/04 00:38:33;;;;;;;2.23;1.20;;;;;;;25.13;43.62;98106.44;5031360;28;20186;-61
2021/08/04 00:41:00;;;;;;;1.90;1.10;;;;;;;25.23;43.07;98103.28;5018618;28;20194;-60
2021/08/04 00:43:27;;;;;;;1.40;1.20;;;;;;;25.19;43.19;98100.25;5035346;28;20217;-61
2021/08/04 00:45:54;;;;;;;2.73;1.37;;;;;;;25.21;43.38;98106.19;5035108;28;20190;-60
2021/08/04 00:48:22;;;;;;;2.40;1.10;;;;;;;25.19;43.18;98102.09;5035353;28;20218;-61
2021/08/04 00:50:49;;;;;;;2.27;1.53;;;;;;;25.42;42.67;98090.88;5035865;28;20186;-60
2021/08/04 00:53:20;;;;;;;2.03;1.40;;;;;;;25.49;42.73;98098.88;5051464;28;20210;-61
2021/08/04 00:55:48;;;;;;;1.67;1.17;;;;;;;25.18;43.09;98100.44;5036480;28;20170;-60
2021/08/04 00:58:16;;;;;;;2.37;1.60;;;;;;;25.08;43.59;98093.72;5034898;28;20194;-60
2021/08/04 01:00:49;;;;;;;2.03;1.17;;;;;;;25.05;43.70;98090.66;5035027;28;20653;-60
2021/08/04 01:03:20;;;;;;;1.43;1.30;;;;;;;25.00;43.75;98093.97;5034703;28;20218;-60
2021/08/04 01:05:55;;;;;;;2.43;1.30;;;;;;;25.04;43.53;98089.84;5034825;28;20198;-60
2021/08/04 01:08:29;;;;;;;3.30;1.33;;;;;;;25.03;43.57;98093.53;5051196;28;20198;-61
2021/08/04 01:10:57;;;;;;;1.90;1.20;;;;;;;25.01;43.73;98084.94;5034684;28;20616;-60
2021/08/04 01:13:29;;;;;;;1.43;1.20;;;;;;;24.98;43.74;98084.53;5035985;28;20244;-60
2021/08/04 01:16:23;;;;;;;2.23;1.27;;;;;;;24.94;43.85;98081.47;5034488;28;20221;-60
2021/08/04 01:19:06;;;;;;;1.60;1.37;;;;;;;25.32;43.20;98079.81;5035165;28;20209;-60
2021/08/04 01:21:52;;;;;;;1.47;1.30;;;;;;;25.04;43.86;98083.69;5035969;28;20542;-60
2021/08/04 01:24:31;;;;;;;2.57;1.17;;;;;;;24.99;43.75;98076.31;5036396;28;20194;-61
2021/08/04 01:26:59;;;;;;;2.20;1.47;;;;;;;24.98;43.63;98081.84;5051060;28;20556;-60
2021/08/04 01:29:26;;;;;;;1.77;1.27;;;;;;;24.95;43.88;98083.91;5050874;28;20210;-60
2021/08/04 01:31:59;;;;;;;3.50;1.37;;;;;;;24.95;43.69;98078.59;5017858;28;20194;-61
2021/08/04 01:34:29;;;;;;;1.97;1.40;;;;;;;24.95;43.77;98083.13;5034149;28;20186;-60
2021/08/04 01:36:56;;;;;;;1.63;1.50;;;;;;;24.92;43.92;98086.19;5034439;28;20198;-60
2021/08/04 01:39:24;;;;;;;3.00;1.50;;;;;;;24.97;43.82;98088.22;5034053;28;20581;-60
2021/08/04 01:41:51;;;;;;;2.87;1.30;;;;;;;24.98;43.74;98095.19;5035367;28;20190;-60
2021/08/04 01:44:19;;;;;;;1.50;1.37;;;;;;;24.94;43.78;98089.50;5033943;28;20252;-60
2021/08/04 01:46:48;;;;;;;4.20;1.50;;;;;;;24.94;43.65;98090.28;5017609;28;20221;-61
2021/08/04 01:49:15;;;;;;;2.50;1.20;;;;;;;24.93;43.70;98094.00;5050479;28;20268;-60
2021/08/04 01:51:45;;;;;;;1.67;1.40;;;;;;;24.93;43.70;98096.66;5033500;28;20190;-60
2021/08/04 01:54:12;;;;;;;1.80;1.47;;;;;;;24.96;43.82;98095.44;5050376;28;20222;-60
2021/08/04 01:56:40;;;;;;;1.40;1.30;;;;;;;25.03;43.60;98092.72;5033766;28;20593;-60
2021/08/04 01:59:06;;;;;;;1.87;1.33;;;;;;;25.07;43.33;98086.72;5017310;28;20605;-60
2021/08/04 02:01:35;;;;;;;1.50;1.40;;;;;;;25.04;43.46;98086.34;5050588;28;20233;-60
2021/08/04 02:04:03;;;;;;;1.83;1.50;;;;;;;25.03;43.62;98087.41;5033476;28;20719;-60
2021/08/04 02:06:54;;;;;;;2.77;1.47;;;;;;;24.97;43.64;98085.56;5050202;28;20194;-60
2021/08/04 02:09:37;;;;;;;2.20;1.37;;;;;;;24.96;43.74;98087.44;5017064;28;20271;-60
2021/08/04 02:12:06;;;;;;;1.57;1.47;;;;;;;24.88;43.91;98084.97;5050029;28;20236;-60
2021/08/04 02:14:43;;;;;;;1.47;1.37;;;;;;;24.91;43.85;98085.38;5033607;28;20182;-60
2021/08/04 02:17:15;;;;;;;2.53;1.63;;;;;;;24.88;44.02;98087.66;5033428;28;20189;-60
2021/08/04 02:19:47;;;;;;;1.50;1.30;;;;;;;24.90;43.77;98088.25;5034145;28;20182;-60
2021/08/04 02:22:38;;;;;;;1.50;1.40;;;;;;;24.91;43.80;98084.56;5034500;28;20187;-61
2021/08/04 02:25:10;;;;;;;1.80;1.70;;;;;;;24.91;43.65;98085.38;5033160;28;20285;-60
2021/08/04 02:27:39;;;;;;;1.83;1.50;;;;;;;24.91;43.96;98077.38;5049836;28;20194;-60
2021/08/04 02:30:10;;;;;;;2.20;1.90;;;;;;;24.92;43.57;98075.50;5033259;28;20609;-61
2021/08/04 02:32:38;;;;;;;1.80;1.70;;;;;;;24.92;43.65;98081.69;5016636;28;20214;-60
2021/08/04 02:35:07;;;;;;;1.97;1.50;;;;;;;24.95;43.56;98077.78;5034272;28;20277;-61
2021/08/04 02:37:34;;;;;;;1.70;1.60;;;;;;;24.95;43.71;98073.25;5034300;28;20186;-60
2021/08/04 02:40:02;;;;;;;1.77;1.50;;;;;;;24.95;43.75;98075.13;5016629;28;20260;-61
2021/08/04 02:42:29;;;;;;;1.70;1.60;;;;;;;24.96;43.81;98074.06;5049466;28;20221;-60
2021/08/04 02:44:56;;;;;;;2.80;1.70;;;;;;;24.95;43.53;98081.25;5033017;28;20675;-62
2021/08/04 02:47:23;;;;;;;2.30;1.77;;;;;;;25.00;43.44;98069.94;5016540;28;20209;-61
2021/08/04 02:49:49;;;;;;;2.97;1.70;;;;;;;24.99;43.50;98064.81;5034294;28;20260;-60
2021/08/04 02:52:17;;;;;;;2.03;1.60;;;;;;;25.05;43.36;98069.31;5049620;28;20221;-61
2021/08/04 02:54:46;;;;;;;3.23;1.60;;;;;;;24.99;43.56;98078.16;5032728;28;20201;-60
2021/08/04 02:57:13;;;;;;;1.57;1.47;;;;;;;24.97;43.43;98075.72;5032949;28;20194;-61
2021/08/04 02:59:40;;;;;;;2.10;1.90;;;;;;;24.97;43.70;98077.56;5032623;28;20285;-62
2021/08/04 03:02:07;;;;;;;2.10;1.90;;;;;;;24.99;43.31;98075.47;5048376;28;20205;-62
2021/08/04 03:04:33;;;;;;;2.17;1.83;;;;;;;24.96;43.70;98071.41;5033738;28;20190;-60
2021/08/04 03:07:00;;;;;;;2.37;1.80;;;;;;;24.97;43.34;98072.22;5034022;28;20249;-60
2021/08/04 03:09:26;;;;;;;4.80;1.90;;;;;;;24.97;43.60;98069.53;5048932;28;20256;-62
2021/08/04 03:11:53;;;;;;;1.73;1.63;;;;;;;24.99;43.34;98075.47;5033687;28;20205;-61
2021/08/04 03:14:19;;;;;;;1.80;1.70;;;;;;;25.01;43.59;98078.75;5032387;28;20190;-60
2021/08/04 03:16:46;;;;;;;2.17;1.60;;;;;;;24.97;43.62;98077.56;5033779;28;20197;-61
2021/08/04 03:19:14;;;;;;;1.80;1.70;;;;;;;24.99;43.41;98075.47;5032330;28;20229;-61
2021/08/04 03:21:41;;;;;;;2.00;1.60;;;;;;;24.98;43.37;98074.69;5033608;28;20186;-60
2021/08/04 03:24:08;;;;;;;1.63;1.53;;;;;;;24.97;43.64;98072.22;5033380;28;20217;-61
2021/08/04 03:26:35;;;;;;;2.17;1.97;;;;;;;24.94;43.50;98074.28;5033447;28;20240;-60
2021/08/04 03:29:01;;;;;;;1.60;1.50;;;;;;;24.93;43.39;98069.97;5033320;28;20358;-61
2021/08/04 03:31:28;;;;;;;1.90;1.80;;;;;;;24.91;43.62;98069.38;5033877;28;20198;-63
2021/08/04 03:33:55;;;;;;;1.60;1.50;;;;;;;24.94;43.36;98074.28;5033273;28;20210;-60
2021/08/04 03:36:23;;;;;;;2.00;1.90;;;;;;;25.05;43.34;98074.66;5033181;28;20190;-60
2021/08/04 03:38:50;;;;;;;3.17;1.97;;;;;;;25.06;43.35;98079.75;5033164;28;20186;-61
2021/08/04 03:41:17;;;;;;;1.60;1.50;;;;;;;25.02;43.24;98077.75;5033208;28;20248;-60
2021/08/04 03:43:43;;;;;;;2.50;1.90;;;;;;;24.95;43.43;98081.25;5033128;28;20256;-60
2021/08/04 03:46:09;;;;;;;1.90;1.80;;;;;;;24.93;43.41;98080.66;5031910;28;20244;-62
2021/08/04 03:48:36;;;;;;;3.10;1.80;;;;;;;24.93;43.55;98080.66;5033063;28;20186;-61
2021/08/04 03:51:03;;;;;;;2.13;1.93;;;;;;;24.92;43.42;98087.03;5033276;28;20194;-60
2021/08/04 03:53:30;;;;;;;2.37;1.97;;;;;;;24.87;43.71;98078.84;5033040;28;20256;-60
2021/08/04 03:55:56;;;;;;;2.30;1.93;;;;;;;24.87;43.57;98078.00;5032997;28;20189;-60
2021/08/04 03:58:22;;;;;;;2.60;1.90;;;;;;;24.83;43.59;98077.59;5032994;28;20194;-60
2021/08/04 04:00:49;;;;;;;2.10;2.00;;;;;;;24.85;43.54;98080.06;5033259;28;20183;-60
2021/08/04 04:03:16;;;;;;;1.83;1.67;;;;;;;24.83;43.69;98080.28;5032811;28;20213;-60
2021/08/04 04:05:43;;;;;;;1.87;1.77;;;;;;;24.83;43.87;98082.13;5033136;28;20716;-60
2021/08/04 04:08:10;;;;;;;4.10;2.03;;;;;;;24.82;43.88;98091.19;5032813;28;20599;-61
2021/08/04 04:10:37;;;;;;;2.67;1.90;;;;;;;24.82;43.82;98091.97;5032791;28;20214;-60
2021/08/04 04:13:03;;;;;;;1.83;1.73;;;;;;;24.80;43.68;98088.72;5033175;28;20260;-60
2021/08/04 04:15:30;;;;;;;1.93;1.83;;;;;;;24.80;43.79;98094.03;5036936;28;20586;-61
2021/08/04 04:17:56;;;;;;;1.70;1.60;;;;;;;24.80;43.84;98096.72;5036815;28;20190;-60
2021/08/04 04:20:23;;;;;;;1.90;1.80;;;;;;;24.77;43.90;98095.31;5036851;28;20212;-61
2021/08/04 04:22:49;;;;;;;2.43;2.23;;;;;;;24.78;43.72;98096.94;5036979;28;20214;-62
2021/08/04 04:25:16;;;;;;;2.43;2.20;;;;;;;24.82;43.54;98102.66;5052071;28;20189;-61
2021/08/04 04:27:44;;;;;;;2.47;2.10;;;;;;;24.84;43.81;98095.25;5036793;28;20198;-60
2021/08/04 04:30:12;;;;;;;2.43;2.23;;;;;;;24.82;43.54;98096.50;5037158;28;20201;-61
2021/08/04 04:32:38;;;;;;;4.03;2.10;;;;;;;24.80;43.66;98096.72;5036526;28;20696;-60
2021/08/04 04:35:06;;;;;;;2.00;1.90;;;;;;;24.79;43.76;98098.56;5036583;28;20209;-61
2021/08/04 04:37:33;;;;;;;2.10;2.00;;;;;;;24.80;43.61;98100.22;5036793;28;20563;-61
2021/08/04 04:39:59;;;;;;;2.57;2.03;;;;;;;24.80;43.76;98099.38;5036471;28;20182;-61
2021/08/04 04:42:26;;;;;;;2.33;2.10;;;;;;;24.80;43.72;98105.56;5036441;28;20217;-60
2021/08/04 04:44:52;;;;;;;2.13;2.03;;;;;;;24.82;43.71;98101.84;5036742;28;20190;-61
2021/08/04 04:47:19;;;;;;;2.30;2.10;;;;;;;24.80;43.63;98100.22;5036407;28;20186;-60
2021/08/04 04:49:45;;;;;;;3.00;2.10;;;;;;;24.77;43.58;98100.63;5036235;28;20209;-61
2021/08/04 04:52:12;;;;;;;2.40;2.20;;;;;;;24.77;43.90;98100.63;5036447;28;20190;-61
2021/08/04 04:54:38;;;;;;;2.23;2.07;;;;;;;24.78;43.61;98101.44;5036207;28;20190;-61
2021/08/04 04:57:05;;;;;;;2.10;2.00;;;;;;;24.72;43.82;98111.06;5036157;28;20197;-60
2021/08/04 04:59:32;;;;;;;2.20;1.90;;;;;;;24.78;43.73;98104.09;5036210;28;20192;-61
2021/08/04 05:01:58;;;;;;;2.53;2.20;;;;;;;24.85;43.53;98098.75;5036211;28;20533;-62
2021/08/04 05:04:25;;;;;;;2.30;2.10;;;;;;;24.89;43.51;98106.13;5036040;28;20592;-61
2021/08/04 05:06:52;;;;;;;2.83;2.10;;;;;;;24.94;43.31;98108.19;5036531;28;20244;-62
2021/08/04 05:09:18;;;;;;;2.10;1.90;;;;;;;24.98;43.10;98104.03;5051116;28;20210;-62
2021/08/04 05:11:45;;;;;;;2.27;2.03;;;;;;;25.03;43.09;98114.88;5036249;28;20186;-61
2021/08/04 05:14:11;;;;;;;2.13;2.03;;;;;;;25.06;43.10;98108.31;5035817;28;20206;-62
2021/08/04 05:16:38;;;;;;;2.00;1.80;;;;;;;25.06;43.31;98108.31;5034525;28;20185;-62
2021/08/04 05:19:04;;;;;;;2.00;1.90;;;;;;;25.07;43.14;98105.41;5035713;28;20221;-62
2021/08/04 05:21:31;;;;;;;2.13;2.03;;;;;;;25.09;42.94;98110.56;5034414;28;20202;-63
2021/08/04 05:23:57;;;;;;;2.17;2.00;;;;;;;25.14;42.92;98116.06;5035508;28;20220;-62
2021/08/04 05:26:24;;;;;;;2.30;2.20;;;;;;;25.12;42.94;98107.47;5033739;28;20552;-62
2021/08/04 05:28:51;;;;;;;2.80;2.10;;;;;;;25.18;43.04;98106.63;5035555;28;20194;-62
2021/08/04 05:31:18;;;;;;;2.33;2.10;;;;;;;25.25;42.77;98111.94;5035602;28;20205;-62
2021/08/04 05:33:45;;;;;;;2.30;2.07;;;;;;;25.24;42.85;98110.25;5036004;28;20216;-62
2021/08/04 05:36:11;;;;;;;2.77;2.20;;;;;;;25.26;42.99;98110.91;5035594;28;20200;-62
2021/08/04 05:38:38;;;;;;;2.30;2.20;;;;;;;25.31;42.68;98110.22;5035291;28;20305;-62
2021/08/04 05:41:04;;;;;;;1.80;1.70;;;;;;;25.28;42.86;98108.81;5035981;28;20253;-61
2021/08/04 05:43:31;;;;;;;1.87;1.77;;;;;;;25.28;42.79;98100.81;5035353;28;20205;-62
2021/08/04 05:45:58;;;;;;;2.07;1.97;;;;;;;25.35;42.46;98101.59;5035274;28;20261;-61
2021/08/04 05:48:24;;;;;;;2.40;2.20;;;;;;;25.33;42.66;98103.66;5035290;28;20241;-62
2021/08/04 05:50:51;;;;;;;2.10;2.00;;;;;;;25.36;42.71;98107.75;5035172;28;20217;-61
2021/08/04 05:53:17;;;;;;;2.50;2.20;;;;;;;25.37;42.65;98104.84;5034985;28;20213;-62
2021/08/04 05:55:44;;;;;;;2.20;2.03;;;;;;;25.40;42.41;98108.97;5035658;28;20236;-60
2021/08/04 05:58:10;;;;;;;2.27;2.13;;;;;;;25.36;42.60;98110.44;5035109;28;20190;-61
2021/08/04 06:00:37;;;;;;;1.93;1.83;;;;;;;25.40;42.72;98114.31;5035000;28;20182;-60
2021/08/04 06:03:03;;;;;;;2.23;2.07;;;;;;;25.50;42.47;98108.50;5033363;28;20218;-61
2021/08/04 06:05:30;;;;;;;2.20;2.00;;;;;;;25.53;42.31;98117.97;5035068;28;20209;-60
2021/08/04 06:07:57;;;;;;;2.20;2.00;;;;;;;25.53;42.24;98112.63;5035343;28;20189;-62
2021/08/04 06:10:23;;;;;;;2.37;2.17;;;;;;;25.55;42.34;98105.19;5034984;28;20568;-62
2021/08/04 06:12:49;;;;;;;2.47;2.13;;;;;;;25.54;42.18;98122.28;5034644;28;20626;-62
2021/08/04 06:15:16;;;;;;;3.73;2.40;;;;;;;25.58;42.45;98112.78;5035053;28;20186;-62
2021/08/04 06:17:42;;;;;;;3.53;2.10;;;;;;;25.59;42.40;98111.75;5034673;28;20194;-63
2021/08/04 06:20:09;;;;;;;3.50;2.27;;;;;;;25.59;42.22;98109.91;5034673;28;20722;-62
2021/08/04 06:22:36;;;;;;;2.70;2.13;;;;;;;25.60;42.09;98121.41;5034553;28;20214;-64
2021/08/04 06:25:03;;;;;;;2.23;2.03;;;;;;;25.65;42.43;98113.53;5034468;28;20581;-62
2021/08/04 06:27:30;;;;;;;4.53;2.37;;;;;;;25.67;42.12;98116.00;5050207;28;20603;-61
2021/08/04 06:30:00;;;;;;;2.03;1.93;;;;;;;25.61;42.26;98115.00;5033572;28;20202;-61
2021/08/04 06:32:26;;;;;;;2.80;1.90;;;;;;;25.55;42.34;98127.38;5034255;28;20214;-62
2021/08/04 06:34:53;;;;;;;3.57;2.27;;;;;;;25.49;42.84;98118.41;5034147;28;20248;-60
2021/08/04 06:37:19;;;;;;;3.43;2.40;;;;;;;25.41;42.82;98115.94;5033582;28;20194;-63
2021/08/04 06:39:46;;;;;;;2.27;2.17;;;;;;;25.34;43.11;98126.66;5034213;28;20264;-61
2021/08/04 06:42:18;;;;;;;2.53;2.13;;;;;;;25.30;43.32;98119.28;5034599;28;20210;-61
2021/08/04 06:44:45;;;;;;;2.40;2.20;;;;;;;25.26;43.35;98129.59;5034403;28;20186;-61
2021/08/04 06:47:12;;;;;;;2.10;2.00;;;;;;;25.24;43.16;98131.63;5049285;28;20198;-61
2021/08/04 06:49:38;;;;;;;2.30;2.10;;;;;;;25.19;43.48;98129.63;5034235;28;20707;-61
2021/08/04 06:52:05;;;;;;;2.33;2.23;;;;;;;25.17;43.65;98142.38;5033901;28;20239;-61
2021/08/04 06:54:31;;;;;;;2.80;2.23;;;;;;;25.19;43.37;98144.81;5034149;28;20240;-61
2021/08/04 06:56:58;;;;;;;2.50;2.30;;;;;;;25.18;43.45;98140.50;5033994;28;20182;-61
2021/08/04 06:59:25;;;;;;;2.57;2.37;;;;;;;25.19;43.37;98134.13;5033411;28;20280;-61
2021/08/04 07:01:51;;;;;;;2.30;2.10;;;;;;;25.20;43.49;98141.09;5034087;28;20190;-61
2021/08/04 07:04:18;;;;;;;2.33;2.13;;;;;;;25.20;43.13;98136.59;5032458;28;20241;-61
2021/08/04 07:06:51;;;;;;;2.50;2.23;;;;;;;25.21;43.20;98140.91;5032343;28;20248;-59
2021/08/04 07:09:18;;;;;;;2.57;2.30;;;;;;;25.25;43.24;98148.47;5033950;28;20182;-60
2021/08/04 07:11:44;;;;;;;3.10;2.60;;;;;;;25.20;43.21;98144.59;5032234;28;20217;-61
2021/08/04 07:14:11;;;;;;;2.40;2.20;;;;;;;25.18;43.26;98138.66;5032174;28;20218;-57
2021/08/04 07:16:38;;;;;;;2.50;2.30;;;;;;;25.18;43.08;98138.66;5032588;28;20300;-61
2021/08/04 07:19:04;;;;;;;2.10;2.00;;;;;;;25.16;43.36;98140.69;5033429;28;20189;-56
2021/08/04 07:21:31;;;;;;;2.77;2.53;;;;;;;25.16;43.33;98140.69;5033426;28;20186;-60
2021/08/04 07:23:57;;;;;;;2.53;2.23;;;;;;;25.20;43.32;98141.94;5033245;28;20272;-60
2021/08/04 07:26:24;;;;;;;2.60;2.40;;;;;;;25.21;43.47;98146.25;5033463;28;20198;-62
2021/08/04 07:28:50;;;;;;;2.47;2.27;;;;;;;25.19;43.49;98148.31;5033501;28;20185;-60
2021/08/04 07:31:17;;;;;;;3.13;2.40;;;;;;;25.18;43.41;98154.69;5033421;28;20209;-60
2021/08/04 07:33:43;;;;;;;2.23;2.03;;;;;;;25.17;43.72;98155.72;5033222;28;20221;-60
2021/08/04 07:36:12;;;;;;;2.60;2.40;;;;;;;25.18;43.26;98153.84;5033263;28;20221;-60
2021/08/04 07:38:39;;;;;;;2.40;2.30;;;;;;;25.17;43.70;98162.91;5033156;28;20240;-59
2021/08/04 07:41:06;;;;;;;2.40;2.20;;;;;;;25.16;43.60;98159.41;5032882;28;20182;-59
2021/08/04 07:43:33;;;;;;;3.43;2.17;;;;;;;25.20;43.53;98155.28;5033037;28;20218;-59
2021/08/04 07:45:59;;;;;;;2.23;2.13;;;;;;;25.16;43.48;98162.06;5032453;28;20201;-61
2021/08/04 07:48:28;;;;;;;4.23;2.43;;;;;;;25.15;43.72;98155.09;5033390;28;20201;-60
2021/08/04 07:50:55;;;;;;;2.60;2.40;;;;;;;25.15;43.55;98165.75;5032924;28;20260;-61
2021/08/04 07:53:22;;;;;;;2.60;2.40;;;;;;;25.04;43.60;98159.25;5032428;28;20252;-60
2021/08/04 07:55:49;;;;;;;2.67;2.47;;;;;;;25.02;43.92;98163.97;5033237;28;20209;-60
2021/08/04 07:58:15;;;;;;;2.50;2.30;;;;;;;25.00;43.95;98158.03;5034250;28;20194;-60
2021/08/04 08:00:42;;;;;;;2.70;2.50;;;;;;;25.02;44.02;98157.84;5034769;28;20182;-60
2021/08/04 08:03:08;;;;;;;2.77;2.57;;;;;;;25.02;43.84;98150.63;5034529;28;20213;-60
2021/08/04 08:05:35;;;;;;;2.60;2.40;;;;;;;25.04;43.61;98151.22;5035299;28;20596;-60
2021/08/04 08:08:05;;;;;;;2.77;2.30;;;;;;;25.04;43.88;98153.09;5034607;28;20190;-61
2021/08/04 08:10:36;;;;;;;2.63;2.40;;;;;;;25.05;43.71;98154.72;5034977;28;20203;-60
2021/08/04 08:13:04;;;;;;;3.07;2.77;;;;;;;25.05;43.71;98144.88;5036530;28;20210;-60
2021/08/04 08:15:31;;;;;;;2.83;2.63;;;;;;;25.08;43.61;98148.97;5035585;28;20248;-60
2021/08/04 08:17:58;;;;;;;3.57;2.90;;;;;;;25.10;43.76;98141.56;5035510;28;20251;-60
2021/08/04 08:20:26;;;;;;;3.70;2.93;;;;;;;25.12;43.48;98144.03;5035766;28;20193;-60
2021/08/04 08:22:53;;;;;;;3.40;3.10;;;;;;;25.15;43.33;98138.25;5035054;28;20206;-62
2021/08/04 08:25:20;;;;;;;4.10;3.60;;;;;;;25.18;43.74;98132.50;5032858;28;20194;-60
2021/08/04 08:27:46;;;;;;;4.07;3.60;;;;;;;25.17;43.47;98139.69;5034551;28;20780;-60
2021/08/04 08:30:13;;;;;;;4.20;3.80;;;;;;;25.17;43.61;98126.34;5032639;28;20263;-60
2021/08/04 08:32:40;;;;;;;4.10;3.70;;;;;;;25.21;43.38;98132.91;5032600;28;20293;-61
2021/08/04 08:35:08;;;;;;;4.37;3.97;;;;;;;25.20;43.60;98128.59;5032742;28;20197;-62
2021/08/04 08:37:34;;;;;;;4.40;4.03;;;;;;;25.16;43.53;98124.69;5032902;28;20190;-61
2021/08/04 08:40:01;;;;;;;4.67;4.27;;;;;;;25.14;43.73;98121.41;5032854;28;20190;-61
2021/08/04 08:42:28;;;;;;;4.27;3.97;;;;;;;25.13;43.72;98114.44;5032554;28;20212;-60
2021/08/04 08:44:57;;;;;;;5.00;4.60;;;;;;;25.15;43.52;98117.72;5032581;28;20194;-60
2021/08/04 08:47:24;;;;;;;4.40;4.10;;;;;;;25.17;43.43;98118.34;5032498;28;20194;-61
2021/08/04 08:49:51;;;;;;;5.20;4.70;;;;;;;25.19;43.54;98124.28;5032814;28;20190;-60
2021/08/04 08:52:17;;;;;;;5.07;4.57;;;;;;;25.19;43.67;98126.94;5032337;28;20222;-60
2021/08/04 08:54:44;;;;;;;4.50;4.20;;;;;;;25.22;43.43;98121.19;5032410;28;20202;-61
2021/08/04 08:57:10;;;;;;;4.17;3.83;;;;;;;25.24;43.52;98120.94;5032731;28;20209;-61
2021/08/04 08:59:37;;;;;;;4.23;3.93;;;;;;;25.26;43.33;98124.25;5032478;28;20186;-61
2021/08/04 09:02:04;;;;;;;4.50;4.13;;;;;;;25.28;43.28;98126.69;5035800;28;20194;-60
2021/08/04 09:04:31;;;;;;;5.00;4.60;;;;;;;25.31;43.39;98120.91;5036024;28;20205;-60
2021/08/04 09:07:00;;;;;;;4.37;4.07;;;;;;;25.34;43.36;98125.84;5036085;28;20190;-60
2021/08/04 09:09:31;;;;;;;4.63;4.23;;;;;;;25.40;43.16;98118.81;5035915;28;20193;-61
2021/08/04 09:12:08;;;;;;;4.90;4.40;;;;;;;25.38;43.07;98117.16;5036300;28;20568;-61
2021/08/04 09:14:42;;;;;;;4.43;4.03;;;;;;;25.40;43.18;98116.97;5036234;28;20193;-60
2021/08/04 09:17:14;;;;;;;5.20;4.70;;;;;;;25.43;43.22;98119.22;5034627;28;20197;-61
2021/08/04 09:19:45;;;;;;;4.80;4.40;;;;;;;25.48;42.88;98111.38;5036114;28;20185;-60
2021/08/04 09:22:16;;;;;;;4.93;4.53;;;;;;;25.50;42.85;98113.84;5034869;28;20170;-60
2021/08/04 09:25:10;;;;;;;4.70;4.30;;;;;;;25.54;42.83;98109.72;5035663;28;20197;-61
2021/08/04 09:27:40;;;;;;;4.90;4.50;;;;;;;25.55;42.65;98106.00;5034348;28;20190;-62
2021/08/04 09:30:10;;;;;;;5.63;5.13;;;;;;;25.55;42.82;98111.34;5035535;28;20182;-62
2021/08/04 09:32:37;;;;;;;6.90;6.20;;;;;;;25.46;42.78;98113.44;5035346;28;20398;-63
2021/08/04 09:35:09;;;;;;;6.77;6.17;;;;;;;25.45;43.14;98111.00;5035517;28;20194;-62
2021/08/04 09:37:36;;;;;;;7.53;6.93;;;;;;;25.41;43.31;98110.59;5034249;28;20186;-61
2021/08/04 09:40:04;;;;;;;7.47;6.87;;;;;;;25.31;43.44;98107.56;5035302;28;20194;-61
2021/08/04 09:42:46;;;;;;;7.07;6.50;;;;;;;25.31;43.33;98104.88;5034024;28;20206;-62
2021/08/04 09:45:18;;;;;;;8.00;7.20;;;;;;;25.28;43.23;98103.50;5035751;28;20236;-61
2021/08/04 09:48:18;;;;;;;8.20;7.40;;;;;;;25.36;43.02;98091.72;5035498;28;20186;-62
2021/08/04 09:50:50;;;;;;;7.40;6.70;;;;;;;25.39;43.03;98091.28;5024419;28;20218;-61
2021/08/04 09:53:18;;;;;;;7.90;7.20;;;;;;;25.39;42.69;98083.28;5035183;28;20209;-61
2021/08/04 09:56:06;;;;;;;8.30;7.60;;;;;;;25.35;42.68;98095.44;5035102;28;20205;-61
2021/08/04 09:58:40;;;;;;;7.03;6.53;;;;;;;25.31;42.68;98088.88;5034366;28;20186;-61
2021/08/04 10:01:10;;;;;;;6.53;6.03;;;;;;;25.27;42.84;98088.50;5034306;28;20605;-61
2021/08/04 10:03:37;;;;;;;7.17;6.20;;;;;;;25.27;42.82;98077.00;5034951;28;20233;-61
2021/08/04 10:06:04;;;;;;;6.73;6.23;;;;;;;25.22;42.88;98081.13;5033586;28;20206;-62
2021/08/04 10:08:52;;;;;;;6.57;6.07;;;;;;;25.23;42.76;98077.41;5034770;28;20174;-61
2021/08/04 10:11:20;;;;;;;6.50;6.00;;;;;;;25.23;42.97;98076.59;5034893;28;20692;-61
2021/08/04 10:13:47;;;;;;;6.43;5.93;;;;;;;25.21;43.06;98082.16;5050041;28;20237;-61
2021/08/04 10:16:14;;;;;;;6.40;5.90;;;;;;;25.20;43.20;98072.50;5034854;28;20244;-63
2021/08/04 10:18:41;;;;;;;6.03;5.53;;;;;;;25.22;43.18;98072.28;5034929;28;20190;-61
2021/08/04 10:21:12;;;;;;;6.20;5.70;;;;;;;25.22;43.19;98075.78;5034656;28;20194;-61
2021/08/04 10:23:44;;;;;;;6.13;5.63;;;;;;;25.25;43.08;98077.22;5034496;28;20206;-60
2021/08/04 10:26:12;;;;;;;6.37;5.87;;;;;;;25.28;42.91;98078.63;5034981;28;20170;-60
2021/08/04 10:28:41;;;;;;;6.30;5.80;;;;;;;25.29;42.98;98081.09;5034185;28;20656;-61
2021/08/04 10:31:09;;;;;;;5.87;5.37;;;;;;;25.32;43.03;98075.31;5032700;28;20351;-60
2021/08/04 10:33:41;;;;;;;6.20;5.63;;;;;;;25.33;42.92;98071.59;5049419;28;20665;-61
2021/08/04 10:36:11;;;;;;;6.30;5.80;;;;;;;25.40;42.87;98063.56;5033873;28;20194;-62
2021/08/04 10:38:46;;;;;;;6.80;6.20;;;;;;;25.36;43.04;98063.16;5034705;28;20174;-61
2021/08/04 10:41:24;;;;;;;6.40;5.90;;;;;;;25.37;43.01;98064.00;5034599;28;20186;-60
2021/08/04 10:43:54;;;;;;;6.10;5.60;;;;;;;25.38;43.28;98046.94;5034374;28;20205;-60
2021/08/04 10:46:33;;;;;;;6.10;5.60;;;;;;;25.40;43.10;98044.03;5034150;28;20182;-61
2021/08/04 10:49:05;;;;;;;7.40;5.73;;;;;;;25.41;43.10;98048.31;5034178;28;20216;-60
2021/08/04 10:51:41;;;;;;;6.10;5.60;;;;;;;25.40;43.21;98044.84;5034026;28;20205;-60
2021/08/04 10:54:15;;;;;;;5.57;5.10;;;;;;;25.41;43.06;98043.81;5034040;28;20212;-60
2021/08/04 10:56:41;;;;;;;5.83;5.33;;;;;;;25.44;42.90;98043.38;5034341;28;20710;-60
2021/08/04 10:59:07;;;;;;;6.07;5.57;;;;;;;25.44;42.76;98045.25;5033105;28;20190;-60
2021/08/04 11:01:38;;;;;;;6.10;5.60;;;;;;;25.43;43.08;98041.75;5033829;28;20190;-61
2021/08/04 11:04:06;;;;;;;5.93;5.47;;;;;;;25.45;42.90;98045.00;5033861;28;20696;-61
2021/08/04 11:06:33;;;;;;;5.80;5.30;;;;;;;25.53;42.86;98043.16;5033847;28;20683;-60
2021/08/04 11:09:12;;;;;;;6.00;5.50;;;;;;;25.47;42.96;98036.78;5033753;28;20224;-61
2021/08/04 11:12:01;;;;;;;6.00;5.50;;;;;;;25.47;42.90;98032.25;5033946;28;20194;-60
2021/08/04 11:15:18;;;;;;;5.90;5.50;;;;;;;25.47;42.72;98032.25;5032796;28;20212;-60
2021/08/04 11:18:03;;;;;;;5.70;5.30;;;;;;;25.52;42.59;98031.66;4972923;28;20207;-61
2021/08/04 11:20:32;;;;;;;6.50;5.90;;;;;;;25.54;42.52;98028.75;4973078;28;20195;-60
2021/08/04 11:22:59;;;;;;;6.07;5.47;;;;;;;25.53;42.87;98032.47;5014912;28;20237;-60
2021/08/04 11:25:35;;;;;;;5.90;5.50;;;;;;;25.56;42.79;98027.50;5033672;28;20224;-60
2021/08/04 11:28:09;;;;;;;5.50;5.10;;;;;;;25.50;42.85;98023.88;5033975;28;20182;-60
2021/08/04 11:30:42;;;;;;;5.70;5.20;;;;;;;25.52;42.69;98031.66;5033672;28;20174;-60
2021/08/04 11:33:18;;;;;;;6.07;5.57;;;;;;;25.56;42.60;98021.34;5033202;28;20216;-61
2021/08/04 11:36:00;;;;;;;4.77;4.37;;;;;;;25.60;42.66;98019.88;5033490;28;20212;-60
2021/08/04 11:38:40;;;;;;;5.37;4.97;;;;;;;25.65;42.55;98020.84;5033418;28;20174;-61
2021/08/04 11:41:14;;;;;;;5.60;5.20;;;;;;;25.62;42.64;98021.28;5033816;28;20189;-60
2021/08/04 11:43:41;;;;;;;5.33;4.97;;;;;;;25.64;42.42;98018.38;5033360;28;20217;-61